Time;durP1;ratioP1;P1;durP2;ratioP2;P2;SDS_P1;SDS_P2;PMS_P1;PMS_P2;Temp;Humidity;BMP_temperature;BMP_pressure;BME280_temperature;BME280_humidity;BME280_pressure;Samples;Min_cycle;Max_cycle;Signal;HPM_P1;HPM_P2
2023/07/05 00:00:53;;;;;;;10.35;4.35;;;;;;;;;;4969627;28;92851;-79
2023/07/05 00:03:20;;;;;;;12.50;5.28;;;;;;;;;;4969999;28;93083;-79
2023/07/05 00:05:46;;;;;;;11.23;4.20;;;;;;;;;;4968926;28;93057;-79
2023/07/05 00:08:13;;;;;;;12.48;5.25;;;;;;;;;;4970287;28;93378;-78
2023/07/05 00:10:39;;;;;;;10.80;5.32;;;;;;;;;;4970703;28;92594;-78
2023/07/05 00:13:06;;;;;;;11.43;4.50;;;;;;;;;;4970467;28;92663;-79
2023/07/05 00:15:32;;;;;;;9.95;4.85;;;;;;;;;;4971946;28;92984;-79
2023/07/05 00:17:59;;;;;;;12.48;5.32;;;;;;;;;;5001157;28;95513;-81
2023/07/05 00:20:27;;;;;;;12.98;4.80;;;;;;;;;;4995897;28;95658;-79
2023/07/05 00:22:53;;;;;;;10.55;4.75;;;;;;;;;;4966885;28;92979;-79
2023/07/05 00:25:20;;;;;;;10.40;4.50;;;;;;;;;;4966514;28;92676;-79
2023/07/05 00:27:47;;;;;;;10.38;4.30;;;;;;;;;;4969915;28;92782;-79
2023/07/05 00:30:13;;;;;;;9.95;3.92;;;;;;;;;;4968448;28;95593;-79
2023/07/05 00:32:40;;;;;;;11.30;4.60;;;;;;;;;;4970928;28;92501;-79
2023/07/05 00:35:07;;;;;;;10.38;4.45;;;;;;;;;;4970788;28;93185;-79
2023/07/05 00:37:33;;;;;;;9.70;4.13;;;;;;;;;;4972696;28;93468;-78
2023/07/05 00:40:00;;;;;;;7.20;3.55;;;;;;;;;;4968446;28;95920;-79
2023/07/05 00:42:28;;;;;;;7.63;3.80;;;;;;;;;;4994787;28;97669;-79
2023/07/05 00:45:18;;;;;;;8.25;3.72;;;;;;;;;;4984268;28;94008;-79
2023/07/05 00:47:45;;;;;;;9.00;4.13;;;;;;;;;;4980516;27;92891;-79
2023/07/05 00:50:11;;;;;;;;;;;;;;;;;;4999140;28;95758;-78
2023/07/05 00:52:38;;;;;;;9.88;3.90;;;;;;;;;;5002264;28;92494;-80
2023/07/05 00:55:05;;;;;;;9.60;4.50;;;;;;;;;;5002619;28;92849;-79
2023/07/05 00:57:33;;;;;;;8.27;3.90;;;;;;;;;;4997621;27;95828;-79
2023/07/05 01:00:06;;;;;;;10.85;4.43;;;;;;;;;;5005170;28;92031;-79
2023/07/05 01:02:38;;;;;;;9.57;3.80;;;;;;;;;;4982548;28;92969;-81
2023/07/05 01:05:06;;;;;;;9.07;4.00;;;;;;;;;;4992654;28;92971;-79
2023/07/05 01:07:32;;;;;;;8.65;3.20;;;;;;;;;;4979960;27;95514;-79
2023/07/05 01:09:59;;;;;;;8.27;3.70;;;;;;;;;;4993210;28;93020;-78
2023/07/05 01:12:31;;;;;;;8.65;3.53;;;;;;;;;;4991104;28;92559;-80
2023/07/05 01:15:01;;;;;;;10.40;3.60;;;;;;;;;;4991098;28;95608;-81
2023/07/05 01:17:46;;;;;;;8.68;3.30;;;;;;;;;;4990337;27;94033;-79
2023/07/05 01:20:32;;;;;;;8.77;3.97;;;;;;;;;;4990692;28;92895;-79
2023/07/05 01:23:06;;;;;;;8.80;3.50;;;;;;;;;;4990942;28;95827;-80
2023/07/05 01:25:42;;;;;;;9.75;3.97;;;;;;;;;;4990470;27;91825;-80
2023/07/05 01:28:17;;;;;;;8.77;3.67;;;;;;;;;;4992821;27;92491;-79
2023/07/05 01:31:03;;;;;;;8.50;4.00;;;;;;;;;;4992884;28;93230;-80
2023/07/05 01:33:35;;;;;;;7.53;3.50;;;;;;;;;;4988403;27;95000;-78
2023/07/05 01:36:02;;;;;;;8.10;3.10;;;;;;;;;;4992354;28;93934;-79
2023/07/05 01:38:29;;;;;;;10.27;3.42;;;;;;;;;;4992190;27;93814;-79
2023/07/05 01:41:03;;;;;;;8.25;3.50;;;;;;;;;;4992208;27;92509;-79
2023/07/05 01:43:31;;;;;;;8.82;3.80;;;;;;;;;;4993110;27;95467;-77
2023/07/05 01:46:01;;;;;;;7.30;3.42;;;;;;;;;;4992134;27;92434;-79
2023/07/05 01:48:31;;;;;;;7.20;3.13;;;;;;;;;;4988370;28;95664;-79
2023/07/05 01:51:11;;;;;;;9.02;3.28;;;;;;;;;;4999084;28;92730;-79
2023/07/05 01:53:46;;;;;;;8.38;3.42;;;;;;;;;;4990818;27;92766;-80
2023/07/05 01:56:17;;;;;;;9.43;3.45;;;;;;;;;;4991232;28;92843;-81
2023/07/05 01:58:45;;;;;;;8.57;3.17;;;;;;;;;;4988512;28;97856;-82
2023/07/05 02:01:14;;;;;;;7.82;3.05;;;;;;;;;;4974208;28;92906;-81
2023/07/05 02:03:41;;;;;;;8.45;3.05;;;;;;;;;;4978082;28;95420;-82
2023/07/05 02:06:11;;;;;;;8.18;2.80;;;;;;;;;;4992807;28;93614;-80
2023/07/05 02:08:38;;;;;;;6.65;2.72;;;;;;;;;;4989151;28;93961;-81
2023/07/05 02:11:05;;;;;;;6.30;2.55;;;;;;;;;;4991980;28;93022;-81
2023/07/05 02:13:32;;;;;;;6.47;2.63;;;;;;;;;;4991163;28;92740;-83
2023/07/05 02:15:59;;;;;;;6.78;2.47;;;;;;;;;;4991197;28;95288;-80
2023/07/05 02:18:29;;;;;;;5.75;2.40;;;;;;;;;;4991137;28;92924;-81
2023/07/05 02:20:56;;;;;;;5.82;2.47;;;;;;;;;;5002290;28;92779;-81
2023/07/05 02:23:23;;;;;;;6.53;2.28;;;;;;;;;;4988286;28;94879;-80
2023/07/05 02:25:50;;;;;;;5.28;2.00;;;;;;;;;;4987063;27;97654;-80
2023/07/05 02:28:17;;;;;;;6.80;2.30;;;;;;;;;;4992853;28;92987;-80
2023/07/05 02:30:44;;;;;;;6.53;2.58;;;;;;;;;;4989121;28;94125;-80
2023/07/05 02:33:12;;;;;;;5.35;2.25;;;;;;;;;;4985407;28;92888;-82
2023/07/05 02:35:39;;;;;;;4.90;2.10;;;;;;;;;;4991468;27;93469;-80
2023/07/05 02:38:06;;;;;;;5.55;1.90;;;;;;;;;;4990379;28;93296;-81
2023/07/05 02:40:33;;;;;;;6.50;2.22;;;;;;;;;;4992421;27;92149;-80
2023/07/05 02:43:00;;;;;;;5.35;1.80;;;;;;;;;;4991529;27;92412;-81
2023/07/05 02:45:27;;;;;;;5.18;1.98;;;;;;;;;;4984264;27;93195;-81
2023/07/05 02:47:53;;;;;;;5.72;2.03;;;;;;;;;;4989586;28;101624;-79
2023/07/05 02:50:22;;;;;;;5.25;1.88;;;;;;;;;;4990520;28;95376;-82
2023/07/05 02:52:51;;;;;;;5.53;2.05;;;;;;;;;;4986161;28;92787;-81
2023/07/05 02:55:21;;;;;;;6.32;2.40;;;;;;;;;;4974599;28;95600;-78
2023/07/05 02:57:47;;;;;;;6.75;2.10;;;;;;;;;;4979525;27;95646;-80
2023/07/05 03:00:14;;;;;;;5.68;2.17;;;;;;;;;;4991032;27;92449;-79
2023/07/05 03:02:41;;;;;;;5.68;2.10;;;;;;;;;;4991313;27;93434;-78
2023/07/05 03:05:08;;;;;;;5.65;2.00;;;;;;;;;;4990660;28;92943;-79
2023/07/05 03:07:35;;;;;;;5.97;2.20;;;;;;;;;;4989270;27;92707;-79
2023/07/05 03:10:02;;;;;;;6.40;2.00;;;;;;;;;;4992410;28;92716;-78
2023/07/05 03:12:28;;;;;;;5.22;1.98;;;;;;;;;;4991860;28;96595;-77
2023/07/05 03:14:55;;;;;;;4.80;2.35;;;;;;;;;;4990686;27;95132;-78
2023/07/05 03:17:24;;;;;;;6.63;2.40;;;;;;;;;;4989962;28;92827;-78
2023/07/05 03:19:54;;;;;;;7.30;2.38;;;;;;;;;;4988914;28;92512;-78
2023/07/05 03:22:20;;;;;;;6.60;2.30;;;;;;;;;;4980554;28;92927;-79
2023/07/05 03:24:49;;;;;;;7.40;2.20;;;;;;;;;;4990484;27;93190;-79
2023/07/05 03:27:15;;;;;;;6.05;2.50;;;;;;;;;;4990491;27;92809;-78
2023/07/05 03:29:42;;;;;;;6.10;2.35;;;;;;;;;;4990577;27;93081;-78
2023/07/05 03:32:08;;;;;;;6.63;2.25;;;;;;;;;;4990174;27;93653;-78
2023/07/05 03:34:35;;;;;;;6.40;2.22;;;;;;;;;;4994061;27;92771;-79
2023/07/05 03:37:02;;;;;;;6.40;2.60;;;;;;;;;;4988611;28;96078;-79
2023/07/05 03:39:29;;;;;;;7.78;2.78;;;;;;;;;;4989989;27;93354;-79
2023/07/05 03:41:57;;;;;;;6.75;2.72;;;;;;;;;;4990045;27;93844;-79
2023/07/05 03:44:24;;;;;;;7.40;2.85;;;;;;;;;;4988378;28;95482;-79
2023/07/05 03:46:51;;;;;;;6.40;2.70;;;;;;;;;;4990583;27;92481;-79
2023/07/05 03:49:17;;;;;;;6.25;2.80;;;;;;;;;;4988756;28;92742;-79
2023/07/05 03:51:44;;;;;;;7.93;2.70;;;;;;;;;;4987253;27;93202;-79
2023/07/05 03:54:10;;;;;;;6.22;2.40;;;;;;;;;;4994050;28;91767;-78
2023/07/05 03:56:37;;;;;;;5.47;2.40;;;;;;;;;;4989984;27;93018;-79
2023/07/05 03:59:04;;;;;;;7.80;2.80;;;;;;;;;;4988617;28;92541;-79
2023/07/05 04:01:31;;;;;;;7.70;2.70;;;;;;;;;;4986452;27;95331;-78
2023/07/05 04:03:59;;;;;;;8.48;2.83;;;;;;;;;;4989377;28;92927;-79
2023/07/05 04:06:30;;;;;;;5.75;2.30;;;;;;;;;;4989704;28;92934;-79
2023/07/05 04:08:57;;;;;;;7.68;2.60;;;;;;;;;;4989154;27;92817;-79
2023/07/05 04:11:23;;;;;;;6.05;2.70;;;;;;;;;;4975951;28;93051;-79
2023/07/05 04:13:50;;;;;;;6.57;2.35;;;;;;;;;;4989715;28;92599;-79
2023/07/05 04:16:18;;;;;;;5.90;2.20;;;;;;;;;;4992647;27;93245;-80
2023/07/05 04:18:45;;;;;;;6.53;2.38;;;;;;;;;;4990458;27;92024;-79
2023/07/05 04:21:12;;;;;;;7.88;2.80;;;;;;;;;;4990010;27;92617;-81
2023/07/05 04:23:39;;;;;;;6.82;2.60;;;;;;;;;;4988792;27;93540;-80
2023/07/05 04:26:14;;;;;;;8.30;2.80;;;;;;;;;;4987995;28;95002;-79
2023/07/05 04:28:41;;;;;;;5.97;2.30;;;;;;;;;;4989728;28;95403;-80
2023/07/05 04:31:09;;;;;;;5.88;2.50;;;;;;;;;;4986773;28;96193;-78
2023/07/05 04:33:35;;;;;;;6.70;2.75;;;;;;;;;;4990472;27;92446;-79
2023/07/05 04:36:02;;;;;;;7.10;2.67;;;;;;;;;;4993236;27;92814;-79
2023/07/05 04:38:29;;;;;;;7.88;2.60;;;;;;;;;;4989195;28;93724;-79
2023/07/05 04:40:58;;;;;;;6.45;2.25;;;;;;;;;;4994194;27;92421;-79
2023/07/05 04:43:25;;;;;;;6.75;2.17;;;;;;;;;;4993420;27;92507;-79
2023/07/05 04:45:53;;;;;;;6.53;2.40;;;;;;;;;;4986243;28;92363;-79
2023/07/05 04:48:20;;;;;;;7.10;2.75;;;;;;;;;;5000543;28;92386;-79
2023/07/05 04:50:48;;;;;;;7.78;2.70;;;;;;;;;;4990482;28;94954;-79
2023/07/05 04:53:15;;;;;;;8.27;3.10;;;;;;;;;;4993401;28;92417;-79
2023/07/05 04:55:45;;;;;;;7.55;2.95;;;;;;;;;;4999254;27;92642;-79
2023/07/05 04:58:12;;;;;;;7.57;2.92;;;;;;;;;;4996380;28;93101;-79
2023/07/05 05:00:38;;;;;;;7.95;2.88;;;;;;;;;;4997206;28;92374;-79
2023/07/05 05:03:05;;;;;;;6.57;2.58;;;;;;;;;;4995048;28;93037;-80
2023/07/05 05:05:31;;;;;;;7.90;2.70;;;;;;;;;;4990180;28;92457;-79
2023/07/05 05:07:58;;;;;;;6.40;2.88;;;;;;;;;;4974197;28;91970;-79
2023/07/05 05:10:25;;;;;;;6.47;2.38;;;;;;;;;;4973598;28;93043;-79
2023/07/05 05:12:51;;;;;;;6.75;2.67;;;;;;;;;;4992510;27;93639;-79
2023/07/05 05:15:18;;;;;;;7.70;2.50;;;;;;;;;;4993272;27;94800;-80
2023/07/05 05:17:45;;;;;;;7.93;2.70;;;;;;;;;;4994185;27;92406;-79
2023/07/05 05:20:11;;;;;;;7.90;2.90;;;;;;;;;;4992637;28;93245;-77
2023/07/05 05:22:38;;;;;;;7.30;2.92;;;;;;;;;;4977816;28;95710;-79
2023/07/05 05:25:05;;;;;;;6.00;2.40;;;;;;;;;;4992733;27;92446;-80
2023/07/05 05:27:31;;;;;;;7.22;2.63;;;;;;;;;;4990675;28;92665;-80
2023/07/05 05:29:58;;;;;;;6.25;2.53;;;;;;;;;;4991402;28;92951;-80
2023/07/05 05:32:24;;;;;;;7.53;2.85;;;;;;;;;;4991871;28;92044;-80
2023/07/05 05:34:51;;;;;;;7.15;2.45;;;;;;;;;;4982197;28;92447;-80
2023/07/05 05:37:18;;;;;;;6.53;2.47;;;;;;;;;;4988757;27;93367;-81
2023/07/05 05:39:44;;;;;;;8.02;2.75;;;;;;;;;;4990344;27;94938;-80
2023/07/05 05:42:11;;;;;;;7.55;2.53;;;;;;;;;;4993981;27;95236;-79
2023/07/05 05:44:37;;;;;;;9.23;3.15;;;;;;;;;;4992209;27;92488;-79
2023/07/05 05:47:04;;;;;;;7.00;2.55;;;;;;;;;;4991518;27;93836;-79
2023/07/05 05:49:30;;;;;;;7.35;2.40;;;;;;;;;;4985033;27;93459;-79
2023/07/05 05:51:57;;;;;;;7.63;2.50;;;;;;;;;;4991205;27;92953;-79
2023/07/05 05:54:24;;;;;;;5.72;2.20;;;;;;;;;;4991278;27;93256;-79
2023/07/05 05:56:51;;;;;;;5.43;2.30;;;;;;;;;;4992081;28;92196;-79
2023/07/05 05:59:17;;;;;;;7.93;2.30;;;;;;;;;;4992126;27;92458;-79
2023/07/05 06:01:44;;;;;;;5.97;2.10;;;;;;;;;;4988953;28;93877;-79
2023/07/05 06:04:13;;;;;;;6.68;2.30;;;;;;;;;;4992346;27;96395;-79
2023/07/05 06:06:39;;;;;;;5.80;2.30;;;;;;;;;;4991832;28;95123;-79
2023/07/05 06:09:06;;;;;;;5.95;2.10;;;;;;;;;;4991707;27;93121;-79
2023/07/05 06:11:32;;;;;;;6.43;2.10;;;;;;;;;;4991584;28;93057;-79
2023/07/05 06:13:59;;;;;;;6.53;2.20;;;;;;;;;;4991651;27;92795;-79
2023/07/05 06:16:26;;;;;;;6.82;2.33;;;;;;;;;;4991421;28;92998;-78
2023/07/05 06:18:52;;;;;;;6.38;2.20;;;;;;;;;;4992841;28;92475;-79
2023/07/05 06:21:19;;;;;;;6.05;2.03;;;;;;;;;;4990767;28;95619;-79
2023/07/05 06:23:45;;;;;;;5.38;1.80;;;;;;;;;;4991620;27;93409;-79
2023/07/05 06:26:12;;;;;;;5.70;1.90;;;;;;;;;;4995379;27;93076;-79
2023/07/05 06:28:39;;;;;;;4.82;1.80;;;;;;;;;;4990334;28;95541;-78
2023/07/05 06:31:11;;;;;;;6.43;2.00;;;;;;;;;;4979788;27;92889;-78
2023/07/05 06:33:38;;;;;;;5.93;1.83;;;;;;;;;;4989473;28;95621;-77
2023/07/05 06:36:05;;;;;;;4.40;1.63;;;;;;;;;;4992528;28;95618;-79
2023/07/05 06:38:32;;;;;;;4.18;1.58;;;;;;;;;;4990205;28;92612;-78
2023/07/05 06:40:58;;;;;;;4.15;1.63;;;;;;;;;;4994808;28;96317;-78
2023/07/05 06:43:25;;;;;;;5.93;1.73;;;;;;;;;;4991844;28;92492;-77
2023/07/05 06:45:54;;;;;;;3.75;1.60;;;;;;;;;;4991025;27;91735;-78
2023/07/05 06:48:21;;;;;;;3.75;1.67;;;;;;;;;;4993744;27;94375;-79
2023/07/05 06:50:54;;;;;;;4.65;1.60;;;;;;;;;;4990295;27;92506;-78
2023/07/05 06:53:22;;;;;;;3.65;1.33;;;;;;;;;;4986126;28;95655;-78
2023/07/05 06:56:11;;;;;;;5.63;1.48;;;;;;;;;;4989839;27;98113;-78
2023/07/05 06:58:38;;;;;;;2.95;1.30;;;;;;;;;;4983129;28;92557;-79
2023/07/05 07:01:04;;;;;;;3.60;1.30;;;;;;;;;;4990394;28;93439;-78
2023/07/05 07:03:31;;;;;;;2.97;1.20;;;;;;;;;;4988980;28;93180;-78
2023/07/05 07:05:59;;;;;;;6.22;1.60;;;;;;;;;;4989944;28;92918;-79
2023/07/05 07:08:30;;;;;;;3.58;1.10;;;;;;;;;;4990046;28;92541;-77
2023/07/05 07:11:01;;;;;;;5.10;1.30;;;;;;;;;;4993962;27;93325;-77
2023/07/05 07:13:28;;;;;;;6.03;1.52;;;;;;;;;;4983572;27;93229;-78
2023/07/05 07:16:05;;;;;;;5.07;1.50;;;;;;;;;;4970137;28;92880;-78
2023/07/05 07:18:37;;;;;;;4.68;1.35;;;;;;;;;;4968163;28;94969;-78
2023/07/05 07:21:09;;;;;;;5.30;1.45;;;;;;;;;;4987518;28;95145;-78
2023/07/05 07:23:36;;;;;;;6.15;1.40;;;;;;;;;;4989364;27;92512;-77
2023/07/05 07:26:03;;;;;;;7.18;1.50;;;;;;;;;;4970255;28;92918;-77
2023/07/05 07:28:29;;;;;;;5.60;1.30;;;;;;;;;;4983523;28;93729;-78
2023/07/05 07:30:56;;;;;;;5.40;1.40;;;;;;;;;;4978875;28;93411;-78
2023/07/05 07:33:23;;;;;;;4.93;1.10;;;;;;;;;;4992211;28;94600;-78
2023/07/05 07:35:50;;;;;;;3.55;1.40;;;;;;;;;;4990007;28;97812;-78
2023/07/05 07:38:16;;;;;;;4.93;1.30;;;;;;;;;;4989195;27;92394;-78
2023/07/05 07:40:43;;;;;;;4.25;1.42;;;;;;;;;;4976393;28;92775;-78
2023/07/05 07:43:10;;;;;;;4.05;1.20;;;;;;;;;;4974008;28;95973;-78
2023/07/05 07:45:36;;;;;;;7.30;1.63;;;;;;;;;;4988884;27;92446;-78
2023/07/05 07:48:03;;;;;;;3.75;1.15;;;;;;;;;;4989452;28;92560;-78
2023/07/05 07:50:31;;;;;;;10.68;1.60;;;;;;;;;;4989811;27;93011;-78
2023/07/05 07:52:57;;;;;;;6.20;1.55;;;;;;;;;;4989241;28;92624;-78
2023/07/05 07:55:24;;;;;;;3.90;1.30;;;;;;;;;;4979907;28;93511;-78
2023/07/05 07:57:51;;;;;;;4.82;1.30;;;;;;;;;;4985889;28;92667;-79
2023/07/05 08:00:18;;;;;;;4.88;1.40;;;;;;;;;;4990287;28;93653;-79
2023/07/05 08:02:45;;;;;;;3.65;1.38;;;;;;;;;;4988891;28;92976;-79
2023/07/05 08:05:15;;;;;;;5.45;1.50;;;;;;;;;;4975491;28;92947;-78
2023/07/05 08:07:43;;;;;;;5.60;1.48;;;;;;;;;;4965868;28;95575;-78
2023/07/05 08:10:09;;;;;;;5.03;1.50;;;;;;;;;;4977827;28;93279;-80
2023/07/05 08:12:36;;;;;;;4.32;1.33;;;;;;;;;;4989099;28;92845;-80
2023/07/05 08:15:03;;;;;;;4.68;1.52;;;;;;;;;;4992607;28;92810;-78
2023/07/05 08:17:29;;;;;;;3.78;1.60;;;;;;;;;;4987409;28;92631;-78
2023/07/05 08:19:56;;;;;;;5.28;1.90;;;;;;;;;;4989914;28;93289;-78
2023/07/05 08:22:22;;;;;;;6.18;1.70;;;;;;;;;;4986477;28;93232;-79
2023/07/05 08:24:50;;;;;;;4.35;1.60;;;;;;;;;;4983248;28;91914;-79
2023/07/05 08:27:17;;;;;;;4.85;1.60;;;;;;;;;;4983148;28;92495;-78
2023/07/05 08:29:43;;;;;;;5.78;1.70;;;;;;;;;;4988753;27;92958;-79
2023/07/05 08:32:10;;;;;;;5.28;1.50;;;;;;;;;;4988535;28;95180;-79
2023/07/05 08:34:36;;;;;;;5.65;1.90;;;;;;;;;;4987756;28;97664;-79
2023/07/05 08:37:03;;;;;;;4.45;1.63;;;;;;;;;;4991797;27;95214;-79
2023/07/05 08:39:30;;;;;;;7.40;1.60;;;;;;;;;;4986428;27;93042;-78
2023/07/05 08:42:00;;;;;;;4.30;1.45;;;;;;;;;;4982847;27;93263;-78
2023/07/05 08:44:27;;;;;;;6.30;1.73;;;;;;;;;;4971856;28;93008;-78
2023/07/05 08:46:59;;;;;;;4.85;1.60;;;;;;;;;;4980734;27;92823;-78
2023/07/05 08:49:28;;;;;;;3.72;1.45;;;;;;;;;;4986527;28;92694;-78
2023/07/05 08:51:56;;;;;;;5.38;1.60;;;;;;;;;;4985582;28;92404;-79
2023/07/05 08:54:32;;;;;;;5.45;1.65;;;;;;;;;;4984296;28;92950;-80
2023/07/05 08:57:08;;;;;;;5.68;1.50;;;;;;;;;;4970594;28;95632;-79
2023/07/05 08:59:42;;;;;;;5.38;1.58;;;;;;;;;;4982771;28;93074;-78
2023/07/05 09:02:10;;;;;;;4.88;1.60;;;;;;;;;;4973848;28;93614;-79
2023/07/05 09:04:37;;;;;;;4.72;1.63;;;;;;;;;;4975685;28;92527;-78
2023/07/05 09:07:03;;;;;;;2.95;1.33;;;;;;;;;;4974482;28;92823;-78
2023/07/05 09:09:40;;;;;;;4.95;1.90;;;;;;;;;;4988296;27;93414;-78
2023/07/05 09:12:24;;;;;;;5.85;1.90;;;;;;;;;;4988665;28;92423;-78
2023/07/05 09:14:50;;;;;;;5.05;2.00;;;;;;;;;;4985935;27;93743;-78
2023/07/05 09:17:24;;;;;;;5.00;1.98;;;;;;;;;;4990297;27;92413;-79
2023/07/05 09:19:58;;;;;;;6.05;1.88;;;;;;;;;;4991845;28;93013;-78
2023/07/05 09:22:27;;;;;;;5.03;2.00;;;;;;;;;;4985368;28;94849;-78
2023/07/05 09:24:55;;;;;;;7.10;2.00;;;;;;;;;;4993382;27;92941;-79
2023/07/05 09:27:25;;;;;;;7.07;2.10;;;;;;;;;;4991551;27;92754;-78
2023/07/05 09:30:10;;;;;;;5.95;1.95;;;;;;;;;;4989928;28;100943;-78
2023/07/05 09:32:39;;;;;;;5.65;1.83;;;;;;;;;;4987554;28;92511;-78
2023/07/05 09:35:12;;;;;;;5.43;1.95;;;;;;;;;;5003708;28;95674;-78
2023/07/05 09:37:41;;;;;;;6.65;1.98;;;;;;;;;;4978161;27;93717;-78
2023/07/05 09:40:15;;;;;;;5.88;2.10;;;;;;;;;;4993506;27;91727;-78
2023/07/05 09:42:48;;;;;;;7.95;2.00;;;;;;;;;;4983781;28;94922;-77
2023/07/05 09:45:16;;;;;;;6.38;2.38;;;;;;;;;;4989192;28;93559;-78
2023/07/05 09:47:44;;;;;;;6.50;1.98;;;;;;;;;;4984157;27;95293;-77
2023/07/05 09:50:13;;;;;;;5.60;1.95;;;;;;;;;;4991424;28;93119;-78
2023/07/05 09:52:40;;;;;;;6.10;1.95;;;;;;;;;;4991125;28;92416;-77
2023/07/05 09:55:10;;;;;;;5.75;1.80;;;;;;;;;;4989618;28;95949;-77
2023/07/05 09:57:38;;;;;;;5.97;1.98;;;;;;;;;;4990640;27;92941;-77
2023/07/05 10:00:05;;;;;;;;;;;;;;;;;;4990679;28;92590;-77
2023/07/05 10:02:39;;;;;;;5.47;2.20;;;;;;;;;;4992580;27;92444;-78
2023/07/05 10:05:23;;;;;;;5.80;1.80;;;;;;;;;;4993803;27;91617;-77
2023/07/05 10:07:58;;;;;;;5.28;1.80;;;;;;;;;;4972527;28;99074;-78
2023/07/05 10:10:32;;;;;;;5.38;1.70;;;;;;;;;;4987706;27;93182;-78
2023/07/05 10:13:11;;;;;;;4.78;1.90;;;;;;;;;;4971859;28;97511;-79
2023/07/05 10:15:49;;;;;;;6.05;1.95;;;;;;;;;;4952180;28;96868;-78
2023/07/05 10:18:30;;;;;;;4.97;1.75;;;;;;;;;;4977781;28;93232;-77
2023/07/05 10:21:04;;;;;;;5.88;1.90;;;;;;;;;;4991132;28;92857;-76
2023/07/05 10:23:32;;;;;;;5.72;1.90;;;;;;;;;;4989230;27;95312;-77
2023/07/05 10:26:06;;;;;;;6.90;2.20;;;;;;;;;;4991301;27;94051;-78
2023/07/05 10:28:35;;;;;;;5.10;1.77;;;;;;;;;;4993401;28;92905;-78
2023/07/05 10:31:05;;;;;;;4.70;1.70;;;;;;;;;;4986268;27;93068;-78
2023/07/05 10:33:35;;;;;;;6.40;1.80;;;;;;;;;;4976524;28;93256;-78
2023/07/05 10:36:04;;;;;;;5.63;1.85;;;;;;;;;;4975578;28;93707;-79
2023/07/05 10:38:44;;;;;;;6.47;1.80;;;;;;;;;;4990218;28;96626;-79
2023/07/05 10:41:31;;;;;;;5.20;1.70;;;;;;;;;;4991759;27;92536;-79
2023/07/05 10:43:58;;;;;;;5.32;1.80;;;;;;;;;;4997368;27;97563;-79
2023/07/05 10:46:26;;;;;;;7.43;2.00;;;;;;;;;;4996711;27;93406;-79
2023/07/05 10:48:53;;;;;;;;;;;;;;;;;;4993370;27;92811;-79
2023/07/05 10:51:23;;;;;;;6.00;1.92;;;;;;;;;;4995818;28;92811;-79
2023/07/05 10:54:11;;;;;;;5.45;1.65;;;;;;;;;;4991806;27;92477;-78
2023/07/05 10:56:38;;;;;;;7.97;2.08;;;;;;;;;;4992125;27;92681;-78
2023/07/05 10:59:12;;;;;;;5.82;1.73;;;;;;;;;;4962690;28;93064;-77
2023/07/05 11:01:45;;;;;;;7.07;1.80;;;;;;;;;;4958780;28;92418;-78
2023/07/05 11:04:13;;;;;;;4.47;1.85;;;;;;;;;;4958270;28;95540;-78
2023/07/05 11:06:41;;;;;;;7.30;1.90;;;;;;;;;;4987810;28;94268;-79
2023/07/05 11:09:10;;;;;;;6.00;1.90;;;;;;;;;;4989019;27;92443;-78
2023/07/05 11:11:40;;;;;;;6.07;2.10;;;;;;;;;;4984699;28;93698;-78
2023/07/05 11:14:13;;;;;;;4.85;1.77;;;;;;;;;;4987927;27;93076;-79
2023/07/05 11:16:41;;;;;;;7.15;2.13;;;;;;;;;;4990017;27;92687;-78
2023/07/05 11:19:12;;;;;;;7.22;1.90;;;;;;;;;;4989916;27;94318;-78
2023/07/05 11:21:44;;;;;;;5.78;1.88;;;;;;;;;;4967544;28;91637;-79
2023/07/05 11:24:12;;;;;;;6.75;2.00;;;;;;;;;;4970052;28;92982;-79
2023/07/05 11:26:40;;;;;;;4.57;1.73;;;;;;;;;;4969410;28;93883;-79
2023/07/05 11:29:26;;;;;;;5.75;1.80;;;;;;;;;;4954583;28;94855;-78
2023/07/05 11:31:53;;;;;;;;;;;;;;;;;;4971578;28;99657;-79
2023/07/05 11:34:25;;;;;;;5.68;1.88;;;;;;;;;;4977514;28;114302;-79
2023/07/05 11:36:52;;;;;;;6.43;2.13;;;;;;;;;;4982074;28;92970;-79
2023/07/05 11:39:35;;;;;;;5.93;2.00;;;;;;;;;;4989251;28;93044;-79
2023/07/05 11:42:17;;;;;;;9.20;2.15;;;;;;;;;;4974365;28;92563;-79
2023/07/05 11:44:44;;;;;;;5.55;1.90;;;;;;;;;;4989532;27;92608;-79
2023/07/05 11:47:31;;;;;;;5.68;1.90;;;;;;;;;;4982749;28;93325;-78
2023/07/05 11:50:08;;;;;;;5.00;1.85;;;;;;;;;;4973367;28;92804;-78
2023/07/05 11:52:35;;;;;;;5.53;1.80;;;;;;;;;;4979314;28;95856;-79
2023/07/05 11:55:04;;;;;;;5.13;1.95;;;;;;;;;;4985324;28;95426;-79
2023/07/05 11:57:33;;;;;;;6.07;2.00;;;;;;;;;;4989249;28;92601;-78
2023/07/05 12:00:14;;;;;;;5.65;2.13;;;;;;;;;;4985977;27;93912;-78
2023/07/05 12:02:47;;;;;;;6.82;1.90;;;;;;;;;;4988139;27;92401;-79
2023/07/05 12:05:15;;;;;;;4.22;1.60;;;;;;;;;;4986841;28;95899;-78
2023/07/05 12:07:44;;;;;;;5.80;1.88;;;;;;;;;;4980234;28;93079;-78
2023/07/05 12:10:15;;;;;;;5.78;1.80;;;;;;;;;;4988186;28;93008;-79
2023/07/05 12:12:42;;;;;;;4.22;1.73;;;;;;;;;;4986737;27;92689;-77
2023/07/05 12:15:11;;;;;;;6.82;1.92;;;;;;;;;;4977548;28;93967;-78
2023/07/05 12:17:38;;;;;;;6.28;1.80;;;;;;;;;;4979307;27;92449;-78
2023/07/05 12:20:10;;;;;;;5.20;1.50;;;;;;;;;;4969994;28;95461;-78
2023/07/05 12:22:37;;;;;;;4.43;1.70;;;;;;;;;;4964197;28;92621;-78
2023/07/05 12:25:04;;;;;;;4.47;1.60;;;;;;;;;;4969268;28;92857;-78
2023/07/05 12:27:31;;;;;;;3.85;1.75;;;;;;;;;;4999671;28;95900;-78
2023/07/05 12:29:59;;;;;;;4.15;1.50;;;;;;;;;;4969813;28;92502;-78
2023/07/05 12:32:27;;;;;;;5.53;1.90;;;;;;;;;;4976075;28;93099;-78
2023/07/05 12:35:14;;;;;;;7.57;1.75;;;;;;;;;;4976635;28;92436;-78
2023/07/05 12:37:41;;;;;;;4.70;1.60;;;;;;;;;;4980039;28;91722;-78
2023/07/05 12:40:18;;;;;;;5.30;1.70;;;;;;;;;;4981576;28;92543;-78
2023/07/05 12:42:51;;;;;;;6.75;1.60;;;;;;;;;;4979291;28;92568;-78
2023/07/05 12:45:23;;;;;;;5.70;1.70;;;;;;;;;;4959492;28;94731;-79
2023/07/05 12:47:49;;;;;;;4.93;1.60;;;;;;;;;;4995731;28;93580;-79
2023/07/05 12:50:20;;;;;;;4.93;1.60;;;;;;;;;;4985443;28;92489;-77
2023/07/05 12:53:01;;;;;;;6.28;1.42;;;;;;;;;;4997133;28;92571;-77
2023/07/05 12:55:29;;;;;;;4.82;1.70;;;;;;;;;;4983321;27;93759;-78
2023/07/05 12:57:56;;;;;;;5.45;1.85;;;;;;;;;;4997330;27;92904;-78
2023/07/05 13:00:23;;;;;;;6.50;1.50;;;;;;;;;;4991407;28;92997;-77
2023/07/05 13:02:50;;;;;;;5.18;1.77;;;;;;;;;;4989655;28;92263;-77
2023/07/05 13:05:17;;;;;;;5.88;1.77;;;;;;;;;;4994941;28;93047;-78
2023/07/05 13:07:45;;;;;;;7.03;1.70;;;;;;;;;;4974312;28;94112;-77
2023/07/05 13:10:11;;;;;;;;;;;;;;;;;;4972588;28;95003;-79
2023/07/05 13:12:44;;;;;;;6.75;1.50;;;;;;;;;;4977268;28;110537;-80
2023/07/05 13:15:11;;;;;;;7.03;1.67;;;;;;;;;;4985442;28;93097;-79
2023/07/05 13:17:38;;;;;;;5.70;1.50;;;;;;;;;;4978099;28;92422;-79
2023/07/05 13:20:05;;;;;;;6.28;1.85;;;;;;;;;;4991703;28;93574;-79
2023/07/05 13:22:36;;;;;;;4.90;1.70;;;;;;;;;;4978812;28;92953;-78
2023/07/05 13:25:05;;;;;;;5.60;1.50;;;;;;;;;;4982299;28;92921;-79
2023/07/05 13:27:35;;;;;;;4.53;1.55;;;;;;;;;;4981252;28;93302;-78
2023/07/05 13:30:09;;;;;;;5.18;1.60;;;;;;;;;;4985400;28;92665;-77
2023/07/05 13:32:39;;;;;;;4.95;1.73;;;;;;;;;;4989559;28;93002;-76
2023/07/05 13:35:06;;;;;;;4.38;1.80;;;;;;;;;;4991732;28;94833;-77
2023/07/05 13:37:32;;;;;;;5.75;1.77;;;;;;;;;;4990525;28;94149;-77
2023/07/05 13:40:09;;;;;;;4.47;1.70;;;;;;;;;;4985869;28;93860;-77
2023/07/05 13:42:36;;;;;;;5.50;1.85;;;;;;;;;;4989714;28;96174;-77
2023/07/05 13:45:03;;;;;;;5.82;1.83;;;;;;;;;;4991918;28;92787;-77
2023/07/05 13:47:30;;;;;;;5.90;1.80;;;;;;;;;;4990876;28;94413;-77
2023/07/05 13:49:57;;;;;;;6.43;1.88;;;;;;;;;;4999019;28;93065;-77
2023/07/05 13:52:28;;;;;;;6.07;1.77;;;;;;;;;;4992054;28;92906;-77
2023/07/05 13:54:54;;;;;;;7.30;1.95;;;;;;;;;;4972886;28;94314;-77
2023/07/05 13:57:21;;;;;;;6.50;1.75;;;;;;;;;;4991723;28;92555;-78
2023/07/05 13:59:48;;;;;;;6.30;1.70;;;;;;;;;;4987681;28;95329;-78
2023/07/05 14:02:28;;;;;;;6.18;1.60;;;;;;;;;;4988433;28;93458;-78
2023/07/05 14:04:55;;;;;;;5.93;2.00;;;;;;;;;;4994197;27;92699;-78
2023/07/05 14:07:21;;;;;;;4.90;1.60;;;;;;;;;;4971169;28;93020;-78
2023/07/05 14:09:48;;;;;;;8.02;1.83;;;;;;;;;;4988611;28;93015;-78
2023/07/05 14:12:18;;;;;;;6.15;1.80;;;;;;;;;;4994643;28;92355;-78
2023/07/05 14:14:45;;;;;;;5.82;1.92;;;;;;;;;;4982179;28;93550;-77
2023/07/05 14:17:18;;;;;;;9.57;2.03;;;;;;;;;;4987212;28;92165;-78
2023/07/05 14:19:45;;;;;;;6.55;1.60;;;;;;;;;;4975649;28;92845;-78
2023/07/05 14:22:20;;;;;;;6.18;1.80;;;;;;;;;;4970311;28;93105;-77
2023/07/05 14:24:51;;;;;;;5.97;1.70;;;;;;;;;;4987318;28;95327;-77
2023/07/05 14:27:19;;;;;;;6.45;1.88;;;;;;;;;;4989177;28;95744;-78
2023/07/05 14:29:47;;;;;;;7.68;2.13;;;;;;;;;;4988329;28;92963;-77
2023/07/05 14:32:14;;;;;;;8.30;2.10;;;;;;;;;;4992762;28;93229;-78
2023/07/05 14:34:41;;;;;;;6.15;1.90;;;;;;;;;;4986955;28;92960;-78
2023/07/05 14:37:08;;;;;;;5.40;1.90;;;;;;;;;;4991168;28;93438;-78
2023/07/05 14:39:34;;;;;;;6.43;1.70;;;;;;;;;;4988301;28;93199;-78
2023/07/05 14:42:02;;;;;;;6.72;2.00;;;;;;;;;;4989734;28;93450;-78
2023/07/05 14:44:28;;;;;;;4.68;1.67;;;;;;;;;;4987773;28;93973;-79
2023/07/05 14:46:55;;;;;;;7.22;2.00;;;;;;;;;;4970958;28;95483;-78
2023/07/05 14:49:21;;;;;;;6.57;2.08;;;;;;;;;;4982795;28;95675;-78
2023/07/05 14:51:49;;;;;;;5.90;1.80;;;;;;;;;;4980970;27;93125;-79
2023/07/05 14:54:16;;;;;;;8.80;2.35;;;;;;;;;;4993015;28;92757;-78